sensor_id;sensor_type;location;lat;lon;timestamp;P1;durP1;ratioP1;P2;durP2;ratioP2
28545;SDS011;15749;49.606;8.738;2022-11-15T00:00:36;2.67;;;1.57;;
28545;SDS011;15749;49.606;8.738;2022-11-15T00:03:43;2.27;;;1.67;;
28545;SDS011;15749;49.606;8.738;2022-11-15T00:06:51;1.90;;;1.67;;
28545;SDS011;15749;49.606;8.738;2022-11-15T00:09:58;2.30;;;1.77;;
28545;SDS011;15749;49.606;8.738;2022-11-15T00:13:05;2.07;;;1.87;;
28545;SDS011;15749;49.606;8.738;2022-11-15T00:16:12;1.97;;;1.60;;
28545;SDS011;15749;49.606;8.738;2022-11-15T00:19:19;2.53;;;1.77;;
28545;SDS011;15749;49.606;8.738;2022-11-15T00:22:32;1.90;;;1.67;;
28545;SDS011;15749;49.606;8.738;2022-11-15T00:25:39;2.33;;;1.73;;
28545;SDS011;15749;49.606;8.738;2022-11-15T00:28:45;2.47;;;1.70;;
28545;SDS011;15749;49.606;8.738;2022-11-15T00:31:52;2.77;;;1.80;;
28545;SDS011;15749;49.606;8.738;2022-11-15T00:34:58;2.17;;;1.70;;
28545;SDS011;15749;49.606;8.738;2022-11-15T00:38:06;1.80;;;1.63;;
28545;SDS011;15749;49.606;8.738;2022-11-15T00:41:13;1.90;;;1.50;;
28545;SDS011;15749;49.606;8.738;2022-11-15T00:44:19;3.70;;;1.70;;
28545;SDS011;15749;49.606;8.738;2022-11-15T00:47:27;1.77;;;1.60;;
28545;SDS011;15749;49.606;8.738;2022-11-15T00:50:33;2.07;;;1.60;;
28545;SDS011;15749;49.606;8.738;2022-11-15T00:53:41;2.30;;;1.40;;
28545;SDS011;15749;49.606;8.738;2022-11-15T00:56:48;2.10;;;1.80;;
28545;SDS011;15749;49.606;8.738;2022-11-15T00:59:55;1.77;;;1.50;;
28545;SDS011;15749;49.606;8.738;2022-11-15T01:03:01;1.87;;;1.67;;
28545;SDS011;15749;49.606;8.738;2022-11-15T01:06:09;1.60;;;1.50;;
28545;SDS011;15749;49.606;8.738;2022-11-15T01:09:17;1.93;;;1.43;;
28545;SDS011;15749;49.606;8.738;2022-11-15T01:12:24;1.43;;;1.30;;
28545;SDS011;15749;49.606;8.738;2022-11-15T01:15:30;2.73;;;1.40;;
28545;SDS011;15749;49.606;8.738;2022-11-15T01:18:37;1.57;;;1.30;;
28545;SDS011;15749;49.606;8.738;2022-11-15T01:21:43;1.87;;;1.40;;
28545;SDS011;15749;49.606;8.738;2022-11-15T01:24:51;2.13;;;1.50;;
28545;SDS011;15749;49.606;8.738;2022-11-15T01:27:58;1.60;;;1.50;;
28545;SDS011;15749;49.606;8.738;2022-11-15T01:31:06;2.33;;;1.93;;
28545;SDS011;15749;49.606;8.738;2022-11-15T01:34:18;2.00;;;1.63;;
28545;SDS011;15749;49.606;8.738;2022-11-15T01:37:25;1.70;;;1.40;;
28545;SDS011;15749;49.606;8.738;2022-11-15T01:40:33;2.30;;;1.80;;
28545;SDS011;15749;49.606;8.738;2022-11-15T01:43:40;1.70;;;1.53;;
28545;SDS011;15749;49.606;8.738;2022-11-15T01:46:47;3.07;;;1.70;;
28545;SDS011;15749;49.606;8.738;2022-11-15T01:49:55;2.73;;;1.70;;
28545;SDS011;15749;49.606;8.738;2022-11-15T01:53:04;2.10;;;1.60;;
28545;SDS011;15749;49.606;8.738;2022-11-15T01:56:13;2.53;;;1.70;;
28545;SDS011;15749;49.606;8.738;2022-11-15T01:59:24;1.77;;;1.67;;
28545;SDS011;15749;49.606;8.738;2022-11-15T02:02:31;2.43;;;1.80;;
28545;SDS011;15749;49.606;8.738;2022-11-15T02:05:39;2.50;;;1.67;;
28545;SDS011;15749;49.606;8.738;2022-11-15T02:08:46;1.60;;;1.50;;
28545;SDS011;15749;49.606;8.738;2022-11-15T02:11:55;2.07;;;1.80;;
28545;SDS011;15749;49.606;8.738;2022-11-15T02:15:02;2.53;;;1.40;;
28545;SDS011;15749;49.606;8.738;2022-11-15T02:18:14;1.60;;;1.50;;
28545;SDS011;15749;49.606;8.738;2022-11-15T02:21:30;2.03;;;1.40;;
28545;SDS011;15749;49.606;8.738;2022-11-15T02:25:03;3.00;;;1.80;;
28545;SDS011;15749;49.606;8.738;2022-11-15T02:28:41;2.07;;;1.60;;
28545;SDS011;15749;49.606;8.738;2022-11-15T02:31:59;1.57;;;1.47;;
28545;SDS011;15749;49.606;8.738;2022-11-15T02:35:15;2.97;;;1.73;;
28545;SDS011;15749;49.606;8.738;2022-11-15T02:38:33;1.60;;;1.37;;
28545;SDS011;15749;49.606;8.738;2022-11-15T02:41:52;1.40;;;1.30;;
28545;SDS011;15749;49.606;8.738;2022-11-15T02:45:03;2.10;;;1.50;;
28545;SDS011;15749;49.606;8.738;2022-11-15T02:48:14;2.97;;;1.80;;
28545;SDS011;15749;49.606;8.738;2022-11-15T02:51:22;1.50;;;1.40;;
28545;SDS011;15749;49.606;8.738;2022-11-15T02:54:30;2.00;;;1.80;;
28545;SDS011;15749;49.606;8.738;2022-11-15T02:57:39;2.47;;;1.80;;
28545;SDS011;15749;49.606;8.738;2022-11-15T03:00:52;1.87;;;1.53;;
28545;SDS011;15749;49.606;8.738;2022-11-15T03:04:13;2.30;;;1.40;;
28545;SDS011;15749;49.606;8.738;2022-11-15T03:07:30;2.00;;;1.40;;
28545;SDS011;15749;49.606;8.738;2022-11-15T03:10:45;1.40;;;1.30;;
28545;SDS011;15749;49.606;8.738;2022-11-15T03:14:02;3.27;;;1.53;;
28545;SDS011;15749;49.606;8.738;2022-11-15T03:17:21;1.77;;;1.53;;
28545;SDS011;15749;49.606;8.738;2022-11-15T03:20:32;2.03;;;1.67;;
28545;SDS011;15749;49.606;8.738;2022-11-15T03:23:40;2.03;;;1.50;;
28545;SDS011;15749;49.606;8.738;2022-11-15T03:26:49;1.70;;;1.40;;
28545;SDS011;15749;49.606;8.738;2022-11-15T03:29:57;1.67;;;1.50;;
28545;SDS011;15749;49.606;8.738;2022-11-15T03:33:08;1.63;;;1.50;;
28545;SDS011;15749;49.606;8.738;2022-11-15T03:36:18;3.43;;;1.80;;
28545;SDS011;15749;49.606;8.738;2022-11-15T03:39:26;2.17;;;1.87;;
28545;SDS011;15749;49.606;8.738;2022-11-15T03:42:35;3.07;;;1.80;;
28545;SDS011;15749;49.606;8.738;2022-11-15T03:45:49;2.80;;;1.50;;
28545;SDS011;15749;49.606;8.738;2022-11-15T03:49:02;2.23;;;1.70;;
28545;SDS011;15749;49.606;8.738;2022-11-15T03:52:15;1.70;;;1.60;;
28545;SDS011;15749;49.606;8.738;2022-11-15T03:55:24;2.20;;;1.80;;
28545;SDS011;15749;49.606;8.738;2022-11-15T03:58:31;2.03;;;1.80;;
28545;SDS011;15749;49.606;8.738;2022-11-15T04:01:37;1.77;;;1.67;;
28545;SDS011;15749;49.606;8.738;2022-11-15T04:04:44;4.37;;;1.97;;
28545;SDS011;15749;49.606;8.738;2022-11-15T04:07:52;1.97;;;1.50;;
28545;SDS011;15749;49.606;8.738;2022-11-15T04:10:59;1.80;;;1.60;;
28545;SDS011;15749;49.606;8.738;2022-11-15T04:14:06;2.50;;;1.80;;
28545;SDS011;15749;49.606;8.738;2022-11-15T04:17:12;1.63;;;1.40;;
28545;SDS011;15749;49.606;8.738;2022-11-15T04:20:20;2.07;;;1.77;;
28545;SDS011;15749;49.606;8.738;2022-11-15T04:23:47;1.43;;;1.33;;
28545;SDS011;15749;49.606;8.738;2022-11-15T04:27:11;3.13;;;1.50;;
28545;SDS011;15749;49.606;8.738;2022-11-15T04:30:18;2.40;;;2.20;;
28545;SDS011;15749;49.606;8.738;2022-11-15T04:33:25;3.13;;;2.83;;
28545;SDS011;15749;49.606;8.738;2022-11-15T04:36:32;3.57;;;2.53;;
28545;SDS011;15749;49.606;8.738;2022-11-15T04:39:58;2.73;;;2.47;;
28545;SDS011;15749;49.606;8.738;2022-11-15T04:43:05;2.20;;;2.00;;
28545;SDS011;15749;49.606;8.738;2022-11-15T04:46:12;2.30;;;2.10;;
28545;SDS011;15749;49.606;8.738;2022-11-15T04:49:18;2.10;;;1.83;;
28545;SDS011;15749;49.606;8.738;2022-11-15T04:52:26;3.90;;;1.77;;
28545;SDS011;15749;49.606;8.738;2022-11-15T04:55:33;2.90;;;2.33;;
28545;SDS011;15749;49.606;8.738;2022-11-15T04:58:40;2.60;;;2.20;;
28545;SDS011;15749;49.606;8.738;2022-11-15T05:01:47;2.57;;;2.00;;
28545;SDS011;15749;49.606;8.738;2022-11-15T05:04:53;2.00;;;1.77;;
28545;SDS011;15749;49.606;8.738;2022-11-15T05:08:00;2.57;;;2.03;;
28545;SDS011;15749;49.606;8.738;2022-11-15T05:11:07;2.03;;;1.80;;
28545;SDS011;15749;49.606;8.738;2022-11-15T05:14:14;3.17;;;2.30;;
28545;SDS011;15749;49.606;8.738;2022-11-15T05:17:21;2.67;;;2.10;;
28545;SDS011;15749;49.606;8.738;2022-11-15T05:20:27;3.77;;;2.10;;
28545;SDS011;15749;49.606;8.738;2022-11-15T05:23:34;2.03;;;1.67;;
28545;SDS011;15749;49.606;8.738;2022-11-15T05:26:41;1.93;;;1.60;;
28545;SDS011;15749;49.606;8.738;2022-11-15T05:29:48;3.03;;;1.60;;
28545;SDS011;15749;49.606;8.738;2022-11-15T05:32:55;1.60;;;1.50;;
28545;SDS011;15749;49.606;8.738;2022-11-15T05:36:02;1.87;;;1.47;;
28545;SDS011;15749;49.606;8.738;2022-11-15T05:39:13;2.27;;;2.03;;
28545;SDS011;15749;49.606;8.738;2022-11-15T05:42:21;2.30;;;1.83;;
28545;SDS011;15749;49.606;8.738;2022-11-15T05:45:28;2.40;;;2.10;;
28545;SDS011;15749;49.606;8.738;2022-11-15T05:48:36;2.33;;;2.10;;
28545;SDS011;15749;49.606;8.738;2022-11-15T05:51:46;3.00;;;2.50;;
28545;SDS011;15749;49.606;8.738;2022-11-15T05:54:54;3.03;;;2.10;;
28545;SDS011;15749;49.606;8.738;2022-11-15T05:58:04;3.53;;;2.27;;
28545;SDS011;15749;49.606;8.738;2022-11-15T06:01:11;2.30;;;2.10;;
28545;SDS011;15749;49.606;8.738;2022-11-15T06:04:18;3.13;;;2.13;;
28545;SDS011;15749;49.606;8.738;2022-11-15T06:07:25;2.27;;;1.90;;
28545;SDS011;15749;49.606;8.738;2022-11-15T06:10:32;2.50;;;2.17;;
28545;SDS011;15749;49.606;8.738;2022-11-15T06:13:40;2.53;;;2.33;;
28545;SDS011;15749;49.606;8.738;2022-11-15T06:16:47;3.07;;;2.13;;
28545;SDS011;15749;49.606;8.738;2022-11-15T06:19:54;2.20;;;1.90;;
28545;SDS011;15749;49.606;8.738;2022-11-15T06:23:02;2.03;;;1.83;;
28545;SDS011;15749;49.606;8.738;2022-11-15T06:26:09;2.83;;;2.23;;
28545;SDS011;15749;49.606;8.738;2022-11-15T06:29:18;2.50;;;2.30;;
28545;SDS011;15749;49.606;8.738;2022-11-15T06:32:25;2.57;;;2.10;;
28545;SDS011;15749;49.606;8.738;2022-11-15T06:35:33;2.77;;;2.07;;
28545;SDS011;15749;49.606;8.738;2022-11-15T06:38:40;2.50;;;2.20;;
28545;SDS011;15749;49.606;8.738;2022-11-15T06:41:47;2.80;;;2.17;;
28545;SDS011;15749;49.606;8.738;2022-11-15T06:44:55;2.93;;;2.17;;
28545;SDS011;15749;49.606;8.738;2022-11-15T06:48:02;3.67;;;2.47;;
28545;SDS011;15749;49.606;8.738;2022-11-15T06:51:10;3.17;;;2.30;;
28545;SDS011;15749;49.606;8.738;2022-11-15T06:54:16;2.90;;;2.60;;
28545;SDS011;15749;49.606;8.738;2022-11-15T06:57:25;2.70;;;2.17;;
28545;SDS011;15749;49.606;8.738;2022-11-15T07:00:33;3.17;;;2.20;;
28545;SDS011;15749;49.606;8.738;2022-11-15T07:03:41;5.03;;;2.20;;
28545;SDS011;15749;49.606;8.738;2022-11-15T07:06:29;5.67;;;3.43;;
28545;SDS011;15749;49.606;8.738;2022-11-15T07:09:17;3.87;;;3.40;;
28545;SDS011;15749;49.606;8.738;2022-11-15T07:12:05;4.70;;;3.50;;
28545;SDS011;15749;49.606;8.738;2022-11-15T07:14:53;5.00;;;4.33;;
28545;SDS011;15749;49.606;8.738;2022-11-15T07:17:42;5.50;;;4.10;;
28545;SDS011;15749;49.606;8.738;2022-11-15T07:20:30;5.57;;;4.13;;
28545;SDS011;15749;49.606;8.738;2022-11-15T07:23:18;4.33;;;3.87;;
28545;SDS011;15749;49.606;8.738;2022-11-15T07:26:06;4.13;;;3.73;;
28545;SDS011;15749;49.606;8.738;2022-11-15T07:28:55;5.23;;;3.97;;
28545;SDS011;15749;49.606;8.738;2022-11-15T07:31:43;5.17;;;3.60;;
28545;SDS011;15749;49.606;8.738;2022-11-15T07:34:32;3.77;;;3.00;;
28545;SDS011;15749;49.606;8.738;2022-11-15T07:37:20;4.23;;;3.40;;
28545;SDS011;15749;49.606;8.738;2022-11-15T07:40:09;4.50;;;3.90;;
28545;SDS011;15749;49.606;8.738;2022-11-15T07:42:58;3.87;;;3.47;;
28545;SDS011;15749;49.606;8.738;2022-11-15T07:45:47;4.17;;;3.77;;
28545;SDS011;15749;49.606;8.738;2022-11-15T07:48:43;4.80;;;4.27;;
28545;SDS011;15749;49.606;8.738;2022-11-15T07:51:32;5.30;;;4.50;;
28545;SDS011;15749;49.606;8.738;2022-11-15T07:54:19;5.87;;;4.60;;
28545;SDS011;15749;49.606;8.738;2022-11-15T07:57:08;5.23;;;4.37;;
28545;SDS011;15749;49.606;8.738;2022-11-15T07:59:56;6.10;;;4.87;;
28545;SDS011;15749;49.606;8.738;2022-11-15T08:02:44;5.80;;;4.83;;
28545;SDS011;15749;49.606;8.738;2022-11-15T08:05:33;4.40;;;4.00;;
28545;SDS011;15749;49.606;8.738;2022-11-15T08:08:23;3.77;;;3.10;;
28545;SDS011;15749;49.606;8.738;2022-11-15T08:11:11;3.40;;;3.07;;
28545;SDS011;15749;49.606;8.738;2022-11-15T08:14:00;3.00;;;2.70;;
28545;SDS011;15749;49.606;8.738;2022-11-15T08:16:47;3.13;;;2.83;;
28545;SDS011;15749;49.606;8.738;2022-11-15T08:19:35;2.73;;;2.53;;
28545;SDS011;15749;49.606;8.738;2022-11-15T08:22:23;4.10;;;3.20;;
28545;SDS011;15749;49.606;8.738;2022-11-15T08:25:13;4.33;;;3.83;;
28545;SDS011;15749;49.606;8.738;2022-11-15T08:28:06;5.00;;;4.30;;
28545;SDS011;15749;49.606;8.738;2022-11-15T08:30:56;4.93;;;4.43;;
28545;SDS011;15749;49.606;8.738;2022-11-15T08:33:45;4.43;;;3.70;;
28545;SDS011;15749;49.606;8.738;2022-11-15T08:36:32;4.27;;;3.87;;
28545;SDS011;15749;49.606;8.738;2022-11-15T08:39:30;3.87;;;3.40;;
28545;SDS011;15749;49.606;8.738;2022-11-15T08:42:20;4.93;;;4.43;;
28545;SDS011;15749;49.606;8.738;2022-11-15T08:45:08;6.20;;;4.50;;
28545;SDS011;15749;49.606;8.738;2022-11-15T08:47:56;5.83;;;5.07;;
28545;SDS011;15749;49.606;8.738;2022-11-15T08:50:44;6.80;;;5.23;;
28545;SDS011;15749;49.606;8.738;2022-11-15T08:53:33;6.07;;;5.33;;
28545;SDS011;15749;49.606;8.738;2022-11-15T08:56:21;7.70;;;6.03;;
28545;SDS011;15749;49.606;8.738;2022-11-15T08:59:10;6.43;;;5.80;;
28545;SDS011;15749;49.606;8.738;2022-11-15T09:01:59;5.63;;;4.97;;
28545;SDS011;15749;49.606;8.738;2022-11-15T09:04:50;5.33;;;4.70;;
28545;SDS011;15749;49.606;8.738;2022-11-15T09:07:37;5.00;;;4.50;;
28545;SDS011;15749;49.606;8.738;2022-11-15T09:10:25;5.30;;;4.50;;
28545;SDS011;15749;49.606;8.738;2022-11-15T09:13:13;5.03;;;4.50;;
28545;SDS011;15749;49.606;8.738;2022-11-15T09:16:02;5.33;;;4.03;;
28545;SDS011;15749;49.606;8.738;2022-11-15T09:18:52;3.90;;;3.47;;
28545;SDS011;15749;49.606;8.738;2022-11-15T09:21:40;6.40;;;3.23;;
28545;SDS011;15749;49.606;8.738;2022-11-15T09:24:28;5.37;;;4.83;;
28545;SDS011;15749;49.606;8.738;2022-11-15T09:27:16;7.40;;;6.27;;
28545;SDS011;15749;49.606;8.738;2022-11-15T09:30:04;6.80;;;6.10;;
28545;SDS011;15749;49.606;8.738;2022-11-15T09:32:55;5.53;;;5.03;;
28545;SDS011;15749;49.606;8.738;2022-11-15T09:35:43;6.03;;;5.30;;
28545;SDS011;15749;49.606;8.738;2022-11-15T09:38:31;5.90;;;5.30;;
28545;SDS011;15749;49.606;8.738;2022-11-15T09:41:29;4.20;;;3.80;;
28545;SDS011;15749;49.606;8.738;2022-11-15T09:44:44;5.57;;;4.10;;
28545;SDS011;15749;49.606;8.738;2022-11-15T09:47:56;4.33;;;3.90;;
28545;SDS011;15749;49.606;8.738;2022-11-15T09:51:06;4.20;;;2.83;;
28545;SDS011;15749;49.606;8.738;2022-11-15T09:54:03;3.03;;;2.40;;
28545;SDS011;15749;49.606;8.738;2022-11-15T09:57:03;2.30;;;2.10;;
28545;SDS011;15749;49.606;8.738;2022-11-15T09:59:49;2.23;;;2.03;;
28545;SDS011;15749;49.606;8.738;2022-11-15T10:03:08;3.13;;;1.63;;
28545;SDS011;15749;49.606;8.738;2022-11-15T10:05:41;1.80;;;1.70;;
28545;SDS011;15749;49.606;8.738;2022-11-15T10:08:25;1.83;;;1.60;;
28545;SDS011;15749;49.606;8.738;2022-11-15T10:20:48;0.97;;;0.90;;
28545;SDS011;15749;49.606;8.738;2022-11-15T10:23:22;1.87;;;1.10;;
28545;SDS011;15749;49.606;8.738;2022-11-15T10:26:00;1.10;;;1.00;;
28545;SDS011;15749;49.606;8.738;2022-11-15T10:28:33;1.47;;;1.20;;
28545;SDS011;15749;49.606;8.738;2022-11-15T10:34:14;1.20;;;1.10;;
28545;SDS011;15749;49.606;8.738;2022-11-15T10:36:56;2.13;;;1.23;;
28545;SDS011;15749;49.606;8.738;2022-11-15T10:39:29;1.57;;;1.27;;
28545;SDS011;15749;49.606;8.738;2022-11-15T10:42:14;1.97;;;1.10;;
28545;SDS011;15749;49.606;8.738;2022-11-15T10:44:46;1.40;;;1.10;;
28545;SDS011;15749;49.606;8.738;2022-11-15T10:50:07;2.00;;;1.00;;
28545;SDS011;15749;49.606;8.738;2022-11-15T10:53:21;1.33;;;1.07;;
28545;SDS011;15749;49.606;8.738;2022-11-15T10:57:05;1.30;;;1.10;;
28545;SDS011;15749;49.606;8.738;2022-11-15T11:00:27;1.27;;;1.10;;
28545;SDS011;15749;49.606;8.738;2022-11-15T11:03:20;1.17;;;0.97;;
28545;SDS011;15749;49.606;8.738;2022-11-15T11:06:08;1.40;;;0.87;;
28545;SDS011;15749;49.606;8.738;2022-11-15T11:09:23;1.53;;;0.90;;
28545;SDS011;15749;49.606;8.738;2022-11-15T11:12:00;1.47;;;1.10;;
28545;SDS011;15749;49.606;8.738;2022-11-15T11:14:35;1.33;;;0.73;;
28545;SDS011;15749;49.606;8.738;2022-11-15T11:17:10;1.83;;;0.77;;
28545;SDS011;15749;49.606;8.738;2022-11-15T11:19:54;2.40;;;1.00;;
28545;SDS011;15749;49.606;8.738;2022-11-15T11:22:37;0.90;;;0.80;;
28545;SDS011;15749;49.606;8.738;2022-11-15T11:25:36;0.60;;;0.60;;
28545;SDS011;15749;49.606;8.738;2022-11-15T11:28:26;0.97;;;0.73;;
28545;SDS011;15749;49.606;8.738;2022-11-15T11:31:21;1.20;;;0.70;;
28545;SDS011;15749;49.606;8.738;2022-11-15T11:34:00;1.10;;;0.73;;
28545;SDS011;15749;49.606;8.738;2022-11-15T11:37:05;1.43;;;0.80;;
28545;SDS011;15749;49.606;8.738;2022-11-15T11:40:10;0.97;;;0.63;;
28545;SDS011;15749;49.606;8.738;2022-11-15T11:43:23;0.80;;;0.60;;
28545;SDS011;15749;49.606;8.738;2022-11-15T11:46:18;1.13;;;0.60;;
28545;SDS011;15749;49.606;8.738;2022-11-15T11:49:01;1.20;;;0.50;;
28545;SDS011;15749;49.606;8.738;2022-11-15T11:51:38;0.80;;;0.70;;
28545;SDS011;15749;49.606;8.738;2022-11-15T11:54:12;1.67;;;0.70;;
28545;SDS011;15749;49.606;8.738;2022-11-15T11:56:46;1.00;;;0.80;;
28545;SDS011;15749;49.606;8.738;2022-11-15T11:59:21;1.17;;;0.80;;
28545;SDS011;15749;49.606;8.738;2022-11-15T12:01:59;2.50;;;0.80;;
28545;SDS011;15749;49.606;8.738;2022-11-15T12:04:47;1.20;;;0.60;;
28545;SDS011;15749;49.606;8.738;2022-11-15T12:07:27;0.90;;;0.70;;
28545;SDS011;15749;49.606;8.738;2022-11-15T12:10:03;1.60;;;0.80;;
28545;SDS011;15749;49.606;8.738;2022-11-15T12:12:45;0.80;;;0.80;;
28545;SDS011;15749;49.606;8.738;2022-11-15T12:15:25;1.20;;;0.87;;
28545;SDS011;15749;49.606;8.738;2022-11-15T12:17:59;2.70;;;0.97;;
28545;SDS011;15749;49.606;8.738;2022-11-15T12:20:32;0.67;;;0.63;;
28545;SDS011;15749;49.606;8.738;2022-11-15T12:23:11;1.53;;;0.70;;
28545;SDS011;15749;49.606;8.738;2022-11-15T12:25:49;0.90;;;0.90;;
28545;SDS011;15749;49.606;8.738;2022-11-15T12:28:25;2.87;;;1.03;;
28545;SDS011;15749;49.606;8.738;2022-11-15T12:31:09;1.97;;;0.70;;
28545;SDS011;15749;49.606;8.738;2022-11-15T12:34:13;1.37;;;0.80;;
28545;SDS011;15749;49.606;8.738;2022-11-15T12:40:27;1.47;;;0.90;;
28545;SDS011;15749;49.606;8.738;2022-11-15T12:46:21;1.20;;;0.70;;
28545;SDS011;15749;49.606;8.738;2022-11-15T12:49:49;1.17;;;0.80;;
28545;SDS011;15749;49.606;8.738;2022-11-15T12:52:36;0.90;;;0.70;;
28545;SDS011;15749;49.606;8.738;2022-11-15T12:56:34;0.60;;;0.60;;
28545;SDS011;15749;49.606;8.738;2022-11-15T12:59:06;0.77;;;0.70;;
28545;SDS011;15749;49.606;8.738;2022-11-15T13:08:35;0.90;;;0.70;;
28545;SDS011;15749;49.606;8.738;2022-11-15T13:17:41;1.00;;;0.90;;
28545;SDS011;15749;49.606;8.738;2022-11-15T13:20:30;1.30;;;1.20;;
28545;SDS011;15749;49.606;8.738;2022-11-15T13:23:07;1.97;;;1.87;;
28545;SDS011;15749;49.606;8.738;2022-11-15T13:28:50;1.70;;;1.60;;
28545;SDS011;15749;49.606;8.738;2022-11-15T13:31:49;1.43;;;1.33;;
28545;SDS011;15749;49.606;8.738;2022-11-15T13:34:34;1.20;;;1.00;;
28545;SDS011;15749;49.606;8.738;2022-11-15T13:37:48;2.20;;;0.90;;
28545;SDS011;15749;49.606;8.738;2022-11-15T13:40:50;1.37;;;0.90;;
28545;SDS011;15749;49.606;8.738;2022-11-15T13:43:26;4.13;;;1.20;;
28545;SDS011;15749;49.606;8.738;2022-11-15T13:48:53;2.17;;;0.80;;
28545;SDS011;15749;49.606;8.738;2022-11-15T13:51:29;1.07;;;0.97;;
28545;SDS011;15749;49.606;8.738;2022-11-15T13:54:18;1.17;;;1.00;;
28545;SDS011;15749;49.606;8.738;2022-11-15T13:57:10;1.50;;;0.87;;
28545;SDS011;15749;49.606;8.738;2022-11-15T13:59:56;0.97;;;0.87;;
28545;SDS011;15749;49.606;8.738;2022-11-15T14:02:47;1.10;;;0.90;;
28545;SDS011;15749;49.606;8.738;2022-11-15T14:05:17;0.80;;;0.80;;
28545;SDS011;15749;49.606;8.738;2022-11-15T14:07:54;1.63;;;0.90;;
28545;SDS011;15749;49.606;8.738;2022-11-15T14:10:29;2.03;;;0.93;;
28545;SDS011;15749;49.606;8.738;2022-11-15T14:13:01;1.40;;;0.77;;
28545;SDS011;15749;49.606;8.738;2022-11-15T14:15:45;0.70;;;0.70;;
28545;SDS011;15749;49.606;8.738;2022-11-15T14:21:14;0.60;;;0.60;;
28545;SDS011;15749;49.606;8.738;2022-11-15T14:23:49;0.67;;;0.67;;
28545;SDS011;15749;49.606;8.738;2022-11-15T14:26:27;1.23;;;0.80;;
28545;SDS011;15749;49.606;8.738;2022-11-15T14:29:23;0.70;;;0.60;;
28545;SDS011;15749;49.606;8.738;2022-11-15T14:32:05;0.93;;;0.80;;
28545;SDS011;15749;49.606;8.738;2022-11-15T14:34:55;1.13;;;0.80;;
28545;SDS011;15749;49.606;8.738;2022-11-15T14:37:30;2.10;;;0.70;;
28545;SDS011;15749;49.606;8.738;2022-11-15T14:40:11;1.47;;;0.70;;
28545;SDS011;15749;49.606;8.738;2022-11-15T14:43:33;0.73;;;0.70;;
28545;SDS011;15749;49.606;8.738;2022-11-15T14:46:33;1.67;;;0.83;;
28545;SDS011;15749;49.606;8.738;2022-11-15T14:49:23;1.87;;;1.00;;
28545;SDS011;15749;49.606;8.738;2022-11-15T14:52:07;0.83;;;0.73;;
28545;SDS011;15749;49.606;8.738;2022-11-15T15:02:08;1.10;;;1.00;;
28545;SDS011;15749;49.606;8.738;2022-11-15T15:05:29;1.70;;;1.30;;
28545;SDS011;15749;49.606;8.738;2022-11-15T15:08:45;1.57;;;1.27;;
28545;SDS011;15749;49.606;8.738;2022-11-15T15:11:43;1.00;;;0.90;;
28545;SDS011;15749;49.606;8.738;2022-11-15T15:14:34;1.57;;;0.83;;
28545;SDS011;15749;49.606;8.738;2022-11-15T15:17:42;3.33;;;1.00;;
28545;SDS011;15749;49.606;8.738;2022-11-15T15:20:36;1.03;;;0.90;;
28545;SDS011;15749;49.606;8.738;2022-11-15T15:24:03;2.77;;;1.00;;
28545;SDS011;15749;49.606;8.738;2022-11-15T15:26:42;1.43;;;1.20;;
28545;SDS011;15749;49.606;8.738;2022-11-15T15:29:12;0.93;;;0.83;;
28545;SDS011;15749;49.606;8.738;2022-11-15T15:31:42;1.43;;;1.20;;
28545;SDS011;15749;49.606;8.738;2022-11-15T15:34:14;2.80;;;1.10;;
28545;SDS011;15749;49.606;8.738;2022-11-15T15:37:06;1.30;;;0.90;;
28545;SDS011;15749;49.606;8.738;2022-11-15T15:39:40;1.00;;;0.90;;
28545;SDS011;15749;49.606;8.738;2022-11-15T15:42:10;2.37;;;0.90;;
28545;SDS011;15749;49.606;8.738;2022-11-15T15:44:40;1.27;;;1.17;;
28545;SDS011;15749;49.606;8.738;2022-11-15T15:47:11;1.47;;;1.10;;
28545;SDS011;15749;49.606;8.738;2022-11-15T15:49:51;0.87;;;0.80;;
28545;SDS011;15749;49.606;8.738;2022-11-15T15:52:26;1.00;;;0.90;;
28545;SDS011;15749;49.606;8.738;2022-11-15T15:54:56;2.47;;;0.90;;
28545;SDS011;15749;49.606;8.738;2022-11-15T15:57:26;2.07;;;1.20;;
28545;SDS011;15749;49.606;8.738;2022-11-15T15:59:56;1.63;;;0.97;;
28545;SDS011;15749;49.606;8.738;2022-11-15T16:02:26;1.13;;;1.00;;
28545;SDS011;15749;49.606;8.738;2022-11-15T16:04:57;2.23;;;1.00;;
28545;SDS011;15749;49.606;8.738;2022-11-15T16:07:27;1.20;;;1.10;;
28545;SDS011;15749;49.606;8.738;2022-11-15T16:09:57;1.40;;;1.07;;
28545;SDS011;15749;49.606;8.738;2022-11-15T16:12:36;1.53;;;1.20;;
28545;SDS011;15749;49.606;8.738;2022-11-15T16:15:30;2.40;;;2.20;;
28545;SDS011;15749;49.606;8.738;2022-11-15T16:18:14;1.73;;;1.57;;
28545;SDS011;15749;49.606;8.738;2022-11-15T16:20:47;1.30;;;1.20;;
28545;SDS011;15749;49.606;8.738;2022-11-15T16:23:19;1.83;;;1.50;;
28545;SDS011;15749;49.606;8.738;2022-11-15T16:25:51;1.63;;;1.47;;
28545;SDS011;15749;49.606;8.738;2022-11-15T16:28:23;3.47;;;1.43;;
28545;SDS011;15749;49.606;8.738;2022-11-15T16:31:01;3.00;;;1.83;;
28545;SDS011;15749;49.606;8.738;2022-11-15T16:33:33;2.70;;;1.90;;
28545;SDS011;15749;49.606;8.738;2022-11-15T16:36:12;2.07;;;1.77;;
28545;SDS011;15749;49.606;8.738;2022-11-15T16:38:56;2.93;;;2.00;;
28545;SDS011;15749;49.606;8.738;2022-11-15T16:41:26;2.33;;;1.47;;
28545;SDS011;15749;49.606;8.738;2022-11-15T16:43:56;1.80;;;1.50;;
28545;SDS011;15749;49.606;8.738;2022-11-15T16:46:26;1.50;;;1.40;;
28545;SDS011;15749;49.606;8.738;2022-11-15T16:48:56;1.23;;;1.13;;
28545;SDS011;15749;49.606;8.738;2022-11-15T16:51:27;1.50;;;1.10;;
28545;SDS011;15749;49.606;8.738;2022-11-15T16:53:56;2.40;;;1.20;;
28545;SDS011;15749;49.606;8.738;2022-11-15T16:56:27;2.07;;;1.43;;
28545;SDS011;15749;49.606;8.738;2022-11-15T16:58:58;2.23;;;1.40;;
28545;SDS011;15749;49.606;8.738;2022-11-15T17:01:29;1.40;;;1.30;;
28545;SDS011;15749;49.606;8.738;2022-11-15T17:04:12;2.83;;;1.33;;
28545;SDS011;15749;49.606;8.738;2022-11-15T17:06:46;2.53;;;1.40;;
28545;SDS011;15749;49.606;8.738;2022-11-15T17:09:17;1.53;;;1.43;;
28545;SDS011;15749;49.606;8.738;2022-11-15T17:11:50;1.33;;;1.20;;
28545;SDS011;15749;49.606;8.738;2022-11-15T17:14:20;1.70;;;1.30;;
28545;SDS011;15749;49.606;8.738;2022-11-15T17:16:49;2.63;;;1.37;;
28545;SDS011;15749;49.606;8.738;2022-11-15T17:19:21;3.10;;;1.90;;
28545;SDS011;15749;49.606;8.738;2022-11-15T17:21:52;2.23;;;1.93;;
28545;SDS011;15749;49.606;8.738;2022-11-15T17:24:22;1.90;;;1.60;;
28545;SDS011;15749;49.606;8.738;2022-11-15T17:26:52;2.40;;;1.87;;
28545;SDS011;15749;49.606;8.738;2022-11-15T17:29:21;2.87;;;1.80;;
28545;SDS011;15749;49.606;8.738;2022-11-15T17:31:51;1.93;;;1.83;;
28545;SDS011;15749;49.606;8.738;2022-11-15T17:34:20;2.37;;;1.60;;
28545;SDS011;15749;49.606;8.738;2022-11-15T17:36:50;1.53;;;1.43;;
28545;SDS011;15749;49.606;8.738;2022-11-15T17:39:20;2.00;;;1.40;;
28545;SDS011;15749;49.606;8.738;2022-11-15T17:41:51;1.73;;;1.20;;
28545;SDS011;15749;49.606;8.738;2022-11-15T17:44:20;2.23;;;1.43;;
28545;SDS011;15749;49.606;8.738;2022-11-15T17:46:50;1.90;;;1.40;;
28545;SDS011;15749;49.606;8.738;2022-11-15T17:49:19;1.80;;;1.30;;
28545;SDS011;15749;49.606;8.738;2022-11-15T17:51:49;2.00;;;1.40;;
28545;SDS011;15749;49.606;8.738;2022-11-15T17:54:21;1.57;;;1.47;;
28545;SDS011;15749;49.606;8.738;2022-11-15T17:56:50;1.93;;;1.70;;
28545;SDS011;15749;49.606;8.738;2022-11-15T17:59:20;1.30;;;1.20;;
28545;SDS011;15749;49.606;8.738;2022-11-15T18:01:49;1.67;;;1.40;;
28545;SDS011;15749;49.606;8.738;2022-11-15T18:04:20;2.27;;;1.80;;
28545;SDS011;15749;49.606;8.738;2022-11-15T18:06:54;2.37;;;1.70;;
28545;SDS011;15749;49.606;8.738;2022-11-15T18:09:25;1.37;;;1.20;;
28545;SDS011;15749;49.606;8.738;2022-11-15T18:11:54;1.60;;;1.50;;
28545;SDS011;15749;49.606;8.738;2022-11-15T18:14:25;1.60;;;1.37;;
28545;SDS011;15749;49.606;8.738;2022-11-15T18:16:56;1.10;;;0.90;;